Scaggsville, Maryland
Current Conditions -  °F | °C
As of 2:36 AM on Saturday 29 Nov 2014 (Local Time) from KFME Reporting Station
Broken Clouds Broken Clouds  
Wind Chill: 27°   Ceiling: 9000
Heat Index: 27°   Visibility: 10mi
Dew Point: 25°   Wind: 0mph
Humidity: 93%   Direction: NA
Pressure: 30.34"   Gusts: NA
Location:  39.1364°N, 76.8642°W
Report Text: KFME 290736Z AUTO 00000KT 10SM SCT075 BKN090 BKN120 M03/M04 A3034 RMK AO1
Loading
Personal Weather Stations






























Interactive Weather Map New forecast layout! Learn more

10-Day Weather Forecast

Advertisements
Track Severe Weather on mobile